sensor_id;sensor_type;location;lat;lon;timestamp;pressure;altitude;pressure_sealevel;temperature;humidity
32251;BME280;41295;48.518;9.206;2023-03-21T00:01:41;97420.13;;;10.40;63.47
32251;BME280;41295;48.518;9.206;2023-03-21T00:03:45;97417.41;;;10.43;63.18
32251;BME280;41295;48.518;9.206;2023-03-21T00:05:49;97418.34;;;10.40;63.36
32251;BME280;41295;48.518;9.206;2023-03-21T00:07:54;97419.28;;;10.39;63.74
32251;BME280;41295;48.518;9.206;2023-03-21T00:09:56;97417.53;;;10.40;63.50
32251;BME280;41295;48.518;9.206;2023-03-21T00:12:14;97410.59;;;10.39;63.67
32251;BME280;41295;48.518;9.206;2023-03-21T00:14:17;97415.84;;;10.37;63.76
32251;BME280;41295;48.518;9.206;2023-03-21T00:16:20;97415.66;;;10.43;63.28
32251;BME280;41295;48.518;9.206;2023-03-21T00:18:30;97406.19;;;10.41;63.25
32251;BME280;41295;48.518;9.206;2023-03-21T00:20:34;97401.81;;;10.41;63.07
32251;BME280;41295;48.518;9.206;2023-03-21T00:22:38;97406.06;;;10.44;63.12
32251;BME280;41295;48.518;9.206;2023-03-21T00:24:40;97406.88;;;10.46;63.30
32251;BME280;41295;48.518;9.206;2023-03-21T00:26:43;97403.34;;;10.47;63.28
32251;BME280;41295;48.518;9.206;2023-03-21T00:28:46;97407.72;;;10.46;63.23
32251;BME280;41295;48.518;9.206;2023-03-21T00:30:49;97402.50;;;10.46;63.11
32251;BME280;41295;48.518;9.206;2023-03-21T00:32:52;97402.50;;;10.46;63.24
32251;BME280;41295;48.518;9.206;2023-03-21T00:34:57;97399.03;;;10.46;63.61
32251;BME280;41295;48.518;9.206;2023-03-21T00:37:21;97400.72;;;10.47;63.26
32251;BME280;41295;48.518;9.206;2023-03-21T00:39:24;97393.84;;;10.46;63.71
32251;BME280;41295;48.518;9.206;2023-03-21T00:41:27;97397.28;;;10.46;63.82
32251;BME280;41295;48.518;9.206;2023-03-21T00:43:42;97388.59;;;10.48;63.75
32251;BME280;41295;48.518;9.206;2023-03-21T00:45:45;97392.91;;;10.49;63.23
32251;BME280;41295;48.518;9.206;2023-03-21T00:47:48;97381.63;;;10.48;63.42
32251;BME280;41295;48.518;9.206;2023-03-21T00:49:51;97382.44;;;10.50;63.48
32251;BME280;41295;48.518;9.206;2023-03-21T00:51:54;97383.25;;;10.51;63.69
32251;BME280;41295;48.518;9.206;2023-03-21T00:54:04;97387.69;;;10.47;63.33
32251;BME280;41295;48.518;9.206;2023-03-21T00:56:07;97378.19;;;10.46;63.53
32251;BME280;41295;48.518;9.206;2023-03-21T00:58:10;97373.94;;;10.43;63.70
32251;BME280;41295;48.518;9.206;2023-03-21T01:00:14;97382.66;;;10.42;64.20
32251;BME280;41295;48.518;9.206;2023-03-21T01:02:18;97380.00;;;10.44;64.02
32251;BME280;41295;48.518;9.206;2023-03-21T01:04:23;97380.78;;;10.46;63.89
32251;BME280;41295;48.518;9.206;2023-03-21T01:06:27;97372.22;;;10.42;63.77
32251;BME280;41295;48.518;9.206;2023-03-21T01:08:31;97376.81;;;10.35;63.93
32251;BME280;41295;48.518;9.206;2023-03-21T01:10:54;97373.34;;;10.35;64.04
32251;BME280;41295;48.518;9.206;2023-03-21T01:12:57;97372.50;;;10.34;64.35
32251;BME280;41295;48.518;9.206;2023-03-21T01:14:59;97371.72;;;10.32;64.47
32251;BME280;41295;48.518;9.206;2023-03-21T01:17:02;97368.38;;;10.29;65.00
32251;BME280;41295;48.518;9.206;2023-03-21T01:19:07;97365.00;;;10.25;64.79
32251;BME280;41295;48.518;9.206;2023-03-21T01:21:25;97366.72;;;10.26;64.67
32251;BME280;41295;48.518;9.206;2023-03-21T01:23:28;97367.56;;;10.27;64.41
32251;BME280;41295;48.518;9.206;2023-03-21T01:25:30;97366.72;;;10.26;64.55
32251;BME280;41295;48.518;9.206;2023-03-21T01:27:34;97367.50;;;10.28;64.86
32251;BME280;41295;48.518;9.206;2023-03-21T01:29:37;97368.31;;;10.30;64.73
32251;BME280;41295;48.518;9.206;2023-03-21T01:31:40;97364.72;;;10.33;64.51
32251;BME280;41295;48.518;9.206;2023-03-21T01:33:42;97366.44;;;10.34;64.12
32251;BME280;41295;48.518;9.206;2023-03-21T01:35:45;97362.88;;;10.37;64.22
32251;BME280;41295;48.518;9.206;2023-03-21T01:38:03;97358.44;;;10.39;64.31
32251;BME280;41295;48.518;9.206;2023-03-21T01:40:07;97361.00;;;10.40;64.42
32251;BME280;41295;48.518;9.206;2023-03-21T01:42:13;97361.88;;;10.41;64.34
32251;BME280;41295;48.518;9.206;2023-03-21T01:44:18;97358.44;;;10.39;64.54
32251;BME280;41295;48.518;9.206;2023-03-21T01:46:28;97354.16;;;10.38;64.49
32251;BME280;41295;48.518;9.206;2023-03-21T01:48:52;97355.91;;;10.37;64.10
32251;BME280;41295;48.518;9.206;2023-03-21T01:50:56;97359.44;;;10.36;63.77
32251;BME280;41295;48.518;9.206;2023-03-21T01:52:59;97349.75;;;10.40;63.71
32251;BME280;41295;48.518;9.206;2023-03-21T01:55:07;97351.50;;;10.39;63.54
32251;BME280;41295;48.518;9.206;2023-03-21T01:57:16;97349.75;;;10.40;63.53
32251;BME280;41295;48.518;9.206;2023-03-21T01:59:25;97353.13;;;10.42;63.77
32251;BME280;41295;48.518;9.206;2023-03-21T02:01:30;97350.50;;;10.43;64.07
32251;BME280;41295;48.518;9.206;2023-03-21T02:03:35;97352.25;;;10.43;64.21
32251;BME280;41295;48.518;9.206;2023-03-21T02:05:53;97353.03;;;10.45;64.69
32251;BME280;41295;48.518;9.206;2023-03-21T02:07:57;97352.19;;;10.44;64.50
32251;BME280;41295;48.518;9.206;2023-03-21T02:10:02;97346.16;;;10.42;64.90
32251;BME280;41295;48.518;9.206;2023-03-21T02:12:08;97348.72;;;10.44;64.57
32251;BME280;41295;48.518;9.206;2023-03-21T02:14:13;97340.94;;;10.42;64.61
32251;BME280;41295;48.518;9.206;2023-03-21T02:16:39;97340.88;;;10.44;64.58
32251;BME280;41295;48.518;9.206;2023-03-21T02:18:53;97331.50;;;10.40;64.84
32251;BME280;41295;48.518;9.206;2023-03-21T02:23:59;97332.63;;;10.32;64.40
32251;BME280;41295;48.518;9.206;2023-03-21T02:26:21;97337.03;;;10.30;64.19
32251;BME280;41295;48.518;9.206;2023-03-21T02:28:46;97334.50;;;10.29;64.37
32251;BME280;41295;48.518;9.206;2023-03-21T02:31:04;97325.88;;;10.27;64.25
32251;BME280;41295;48.518;9.206;2023-03-21T02:36:08;97329.97;;;10.34;63.42
32251;BME280;41295;48.518;9.206;2023-03-21T02:38:23;97330.69;;;10.38;63.11
32251;BME280;41295;48.518;9.206;2023-03-21T02:40:31;97330.91;;;10.31;63.05
32251;BME280;41295;48.518;9.206;2023-03-21T02:42:43;97326.63;;;10.30;63.29
32251;BME280;41295;48.518;9.206;2023-03-21T02:45:03;97330.69;;;10.38;62.74
32251;BME280;41295;48.518;9.206;2023-03-21T02:47:11;97317.25;;;10.25;63.37
32251;BME280;41295;48.518;9.206;2023-03-21T02:49:17;97322.28;;;10.29;63.06
32251;BME280;41295;48.518;9.206;2023-03-21T02:51:25;97325.00;;;10.26;63.30
32251;BME280;41295;48.518;9.206;2023-03-21T02:53:33;97318.16;;;10.23;63.75
32251;BME280;41295;48.518;9.206;2023-03-21T02:55:39;97315.38;;;10.28;63.33
32251;BME280;41295;48.518;9.206;2023-03-21T02:57:46;97316.50;;;10.21;63.43
32251;BME280;41295;48.518;9.206;2023-03-21T02:59:51;97313.16;;;10.17;63.89
32251;BME280;41295;48.518;9.206;2023-03-21T03:02:02;97320.09;;;10.18;63.53
32251;BME280;41295;48.518;9.206;2023-03-21T03:04:16;97319.22;;;10.43;62.85
32251;BME280;41295;48.518;9.206;2023-03-21T03:06:23;97327.50;;;10.29;63.46
32251;BME280;41295;48.518;9.206;2023-03-21T03:08:35;97324.44;;;10.18;63.56
32251;BME280;41295;48.518;9.206;2023-03-21T03:11:11;97323.00;;;10.09;64.13
32251;BME280;41295;48.518;9.206;2023-03-21T03:13:30;97325.81;;;10.03;64.38
32251;BME280;41295;48.518;9.206;2023-03-21T03:15:41;97328.53;;;9.99;64.27
32251;BME280;41295;48.518;9.206;2023-03-21T03:17:51;97330.34;;;9.97;64.71
32251;BME280;41295;48.518;9.206;2023-03-21T03:20:09;97324.28;;;9.97;64.45
32251;BME280;41295;48.518;9.206;2023-03-21T03:22:22;97326.94;;;9.95;64.57
32251;BME280;41295;48.518;9.206;2023-03-21T03:24:31;97332.06;;;9.98;64.50
32251;BME280;41295;48.518;9.206;2023-03-21T03:26:38;97324.13;;;10.02;64.26
32251;BME280;41295;48.518;9.206;2023-03-21T03:28:46;97322.47;;;9.99;64.30
32251;BME280;41295;48.518;9.206;2023-03-21T03:30:50;97323.38;;;9.98;64.75
32251;BME280;41295;48.518;9.206;2023-03-21T03:33:09;97313.81;;;9.98;64.93
32251;BME280;41295;48.518;9.206;2023-03-21T03:35:17;97320.78;;;9.98;64.52
32251;BME280;41295;48.518;9.206;2023-03-21T03:37:21;97318.97;;;10.00;64.60
32251;BME280;41295;48.518;9.206;2023-03-21T03:39:34;97315.50;;;9.99;64.60
32251;BME280;41295;48.518;9.206;2023-03-21T03:41:43;97316.38;;;10.00;64.83
32251;BME280;41295;48.518;9.206;2023-03-21T03:44:07;97313.22;;;10.16;64.20
32251;BME280;41295;48.518;9.206;2023-03-21T03:46:13;97315.81;;;10.16;63.97
32251;BME280;41295;48.518;9.206;2023-03-21T03:48:22;97307.81;;;10.20;63.56
32251;BME280;41295;48.518;9.206;2023-03-21T03:50:29;97313.69;;;10.27;63.44
32251;BME280;41295;48.518;9.206;2023-03-21T03:52:36;97303.75;;;10.13;63.80
32251;BME280;41295;48.518;9.206;2023-03-21T03:54:57;97300.31;;;10.13;63.56
32251;BME280;41295;48.518;9.206;2023-03-21T03:57:00;97298.19;;;9.98;64.02
32251;BME280;41295;48.518;9.206;2023-03-21T03:59:03;97295.66;;;9.95;64.26
32251;BME280;41295;48.518;9.206;2023-03-21T04:01:07;97301.03;;;9.91;64.61
32251;BME280;41295;48.518;9.206;2023-03-21T04:03:10;97295.84;;;9.91;64.85
32251;BME280;41295;48.518;9.206;2023-03-21T04:05:13;97290.81;;;9.86;65.11
32251;BME280;41295;48.518;9.206;2023-03-21T04:07:15;97297.75;;;9.85;65.22
32251;BME280;41295;48.518;9.206;2023-03-21T04:09:18;97288.25;;;9.84;65.06
32251;BME280;41295;48.518;9.206;2023-03-21T04:11:39;97292.53;;;9.85;65.03
32251;BME280;41295;48.518;9.206;2023-03-21T04:13:41;97292.53;;;9.85;64.72
32251;BME280;41295;48.518;9.206;2023-03-21T04:15:44;97287.34;;;9.85;65.07
32251;BME280;41295;48.518;9.206;2023-03-21T04:17:47;97288.13;;;9.88;65.09
32251;BME280;41295;48.518;9.206;2023-03-21T04:19:49;97285.59;;;9.86;65.17
32251;BME280;41295;48.518;9.206;2023-03-21T04:22:05;97291.84;;;9.80;65.25
32251;BME280;41295;48.518;9.206;2023-03-21T04:24:08;97287.50;;;9.81;65.30
32251;BME280;41295;48.518;9.206;2023-03-21T04:26:12;97284.91;;;9.81;65.08
32251;BME280;41295;48.518;9.206;2023-03-21T04:28:16;97282.25;;;9.82;65.05
32251;BME280;41295;48.518;9.206;2023-03-21T04:30:18;97286.59;;;9.82;65.64
32251;BME280;41295;48.518;9.206;2023-03-21T04:32:25;97284.78;;;9.84;65.32
32251;BME280;41295;48.518;9.206;2023-03-21T04:34:27;97287.38;;;9.84;65.21
32251;BME280;41295;48.518;9.206;2023-03-21T04:36:30;97288.25;;;9.84;65.02
32251;BME280;41295;48.518;9.206;2023-03-21T04:38:39;97286.53;;;9.83;65.03
32251;BME280;41295;48.518;9.206;2023-03-21T04:40:42;97290.84;;;9.84;65.42
32251;BME280;41295;48.518;9.206;2023-03-21T04:42:45;97284.78;;;9.84;65.19
32251;BME280;41295;48.518;9.206;2023-03-21T04:44:49;97289.09;;;9.85;65.12
32251;BME280;41295;48.518;9.206;2023-03-21T04:46:52;97284.78;;;9.84;65.16
32251;BME280;41295;48.518;9.206;2023-03-21T04:48:55;97287.28;;;9.87;65.14
32251;BME280;41295;48.518;9.206;2023-03-21T04:50:57;97289.03;;;9.86;65.12
32251;BME280;41295;48.518;9.206;2023-03-21T04:53:00;97284.56;;;9.90;64.22
32251;BME280;41295;48.518;9.206;2023-03-21T04:55:03;97292.59;;;9.84;64.33
32251;BME280;41295;48.518;9.206;2023-03-21T04:57:06;97291.81;;;9.82;64.87
32251;BME280;41295;48.518;9.206;2023-03-21T04:59:11;97292.91;;;9.74;65.36
32251;BME280;41295;48.518;9.206;2023-03-21T05:01:15;97294.66;;;9.74;65.04
32251;BME280;41295;48.518;9.206;2023-03-21T05:03:21;97286.06;;;9.72;65.26
32251;BME280;41295;48.518;9.206;2023-03-21T05:05:23;97287.81;;;9.71;65.42
32251;BME280;41295;48.518;9.206;2023-03-21T05:07:26;97290.41;;;9.71;65.38
32251;BME280;41295;48.518;9.206;2023-03-21T05:09:31;97286.09;;;9.70;65.59
32251;BME280;41295;48.518;9.206;2023-03-21T05:11:35;97286.91;;;9.72;65.75
32251;BME280;41295;48.518;9.206;2023-03-21T05:13:39;97288.63;;;9.73;65.87
32251;BME280;41295;48.518;9.206;2023-03-21T05:15:41;97290.41;;;9.71;65.68
32251;BME280;41295;48.518;9.206;2023-03-21T05:17:45;97288.63;;;9.73;65.43
32251;BME280;41295;48.518;9.206;2023-03-21T05:19:49;97295.56;;;9.73;65.41
32251;BME280;41295;48.518;9.206;2023-03-21T05:21:53;97292.09;;;9.72;65.43
32251;BME280;41295;48.518;9.206;2023-03-21T05:23:55;97290.25;;;9.76;65.09
32251;BME280;41295;48.518;9.206;2023-03-21T05:25:58;97292.06;;;9.74;65.52
32251;BME280;41295;48.518;9.206;2023-03-21T05:28:01;97295.47;;;9.76;65.62
32251;BME280;41295;48.518;9.206;2023-03-21T05:30:05;97296.47;;;9.72;65.73
32251;BME280;41295;48.518;9.206;2023-03-21T05:32:08;97303.56;;;9.67;65.65
32251;BME280;41295;48.518;9.206;2023-03-21T05:34:13;97306.22;;;9.65;65.31
32251;BME280;41295;48.518;9.206;2023-03-21T05:36:15;97308.09;;;9.61;65.75
32251;BME280;41295;48.518;9.206;2023-03-21T05:38:18;97305.53;;;9.60;65.54
32251;BME280;41295;48.518;9.206;2023-03-21T05:40:21;97304.78;;;9.56;65.83
32251;BME280;41295;48.518;9.206;2023-03-21T05:42:24;97305.59;;;9.58;65.75
32251;BME280;41295;48.518;9.206;2023-03-21T05:44:27;97301.88;;;9.66;65.15
32251;BME280;41295;48.518;9.206;2023-03-21T05:46:29;97310.22;;;9.75;64.73
32251;BME280;41295;48.518;9.206;2023-03-21T05:48:32;97300.03;;;9.69;65.51
32251;BME280;41295;48.518;9.206;2023-03-21T05:50:37;97308.31;;;9.55;65.43
32251;BME280;41295;48.518;9.206;2023-03-21T05:52:40;97307.16;;;9.64;65.47
32251;BME280;41295;48.518;9.206;2023-03-21T05:54:42;97305.00;;;9.75;65.34
32251;BME280;41295;48.518;9.206;2023-03-21T05:56:45;97307.91;;;9.68;65.42
32251;BME280;41295;48.518;9.206;2023-03-21T05:58:47;97306.69;;;9.51;65.63
32251;BME280;41295;48.518;9.206;2023-03-21T06:00:50;97309.56;;;9.43;66.31
32251;BME280;41295;48.518;9.206;2023-03-21T06:02:53;97310.00;;;9.56;65.83
32251;BME280;41295;48.518;9.206;2023-03-21T06:04:55;97304.28;;;9.72;65.34
32251;BME280;41295;48.518;9.206;2023-03-21T06:06:59;97303.75;;;9.62;65.33
32251;BME280;41295;48.518;9.206;2023-03-21T06:09:02;97304.25;;;9.46;66.03
32251;BME280;41295;48.518;9.206;2023-03-21T06:11:06;97308.66;;;9.44;66.52
32251;BME280;41295;48.518;9.206;2023-03-21T06:13:14;97310.50;;;9.41;66.41
32251;BME280;41295;48.518;9.206;2023-03-21T06:15:17;97311.34;;;9.41;65.92
32251;BME280;41295;48.518;9.206;2023-03-21T06:17:19;97309.00;;;9.33;66.80
32251;BME280;41295;48.518;9.206;2023-03-21T06:19:22;97305.41;;;9.37;66.36
32251;BME280;41295;48.518;9.206;2023-03-21T06:21:24;97306.28;;;9.36;66.56
32251;BME280;41295;48.518;9.206;2023-03-21T06:23:28;97307.47;;;9.26;66.61
32251;BME280;41295;48.518;9.206;2023-03-21T06:25:31;97315.38;;;9.23;66.78
32251;BME280;41295;48.518;9.206;2023-03-21T06:27:34;97310.09;;;9.26;66.90
32251;BME280;41295;48.518;9.206;2023-03-21T06:29:37;97307.72;;;9.45;66.12
32251;BME280;41295;48.518;9.206;2023-03-21T06:31:40;97312.41;;;9.35;66.21
32251;BME280;41295;48.518;9.206;2023-03-21T06:33:42;97308.50;;;9.22;66.87
32251;BME280;41295;48.518;9.206;2023-03-21T06:35:50;97305.16;;;9.17;66.91
32251;BME280;41295;48.518;9.206;2023-03-21T06:37:52;97308.63;;;9.17;67.38
32251;BME280;41295;48.518;9.206;2023-03-21T06:39:56;97301.63;;;9.19;67.08
32251;BME280;41295;48.518;9.206;2023-03-21T06:41:59;97304.22;;;9.19;67.17
32251;BME280;41295;48.518;9.206;2023-03-21T06:44:02;97317.25;;;9.19;66.93
32251;BME280;41295;48.518;9.206;2023-03-21T06:46:05;97305.91;;;9.20;66.79
32251;BME280;41295;48.518;9.206;2023-03-21T06:48:07;97307.59;;;9.23;67.00
32251;BME280;41295;48.518;9.206;2023-03-21T06:50:10;97311.88;;;9.24;67.00
32251;BME280;41295;48.518;9.206;2023-03-21T06:52:13;97310.13;;;9.24;67.11
32251;BME280;41295;48.518;9.206;2023-03-21T06:54:15;97307.47;;;9.26;66.89
32251;BME280;41295;48.518;9.206;2023-03-21T06:56:20;97303.94;;;9.29;67.14
32251;BME280;41295;48.518;9.206;2023-03-21T06:58:23;97303.03;;;9.30;67.10
32251;BME280;41295;48.518;9.206;2023-03-21T07:00:26;97302.94;;;9.33;66.68
32251;BME280;41295;48.518;9.206;2023-03-21T07:02:28;97295.00;;;9.37;66.82
32251;BME280;41295;48.518;9.206;2023-03-21T07:04:32;97296.56;;;9.42;66.58
32251;BME280;41295;48.518;9.206;2023-03-21T07:06:34;97296.56;;;9.42;66.30
32251;BME280;41295;48.518;9.206;2023-03-21T07:08:37;97293.84;;;9.46;66.44
32251;BME280;41295;48.518;9.206;2023-03-21T07:10:41;97299.03;;;9.46;66.24
32251;BME280;41295;48.518;9.206;2023-03-21T07:12:47;97293.72;;;9.49;66.18
32251;BME280;41295;48.518;9.206;2023-03-21T07:14:50;97297.78;;;9.58;66.34
32251;BME280;41295;48.518;9.206;2023-03-21T07:16:52;97298.75;;;9.56;66.31
32251;BME280;41295;48.518;9.206;2023-03-21T07:18:55;97295.75;;;9.67;65.80
32251;BME280;41295;48.518;9.206;2023-03-21T07:20:57;97297.72;;;9.60;65.51
32251;BME280;41295;48.518;9.206;2023-03-21T07:23:00;97299.38;;;9.62;65.60
32251;BME280;41295;48.518;9.206;2023-03-21T07:25:04;97295.88;;;9.63;65.80
32251;BME280;41295;48.518;9.206;2023-03-21T07:27:08;97294.00;;;9.67;65.25
32251;BME280;41295;48.518;9.206;2023-03-21T07:29:12;97306.06;;;9.97;64.85
32251;BME280;41295;48.518;9.206;2023-03-21T07:31:16;97297.88;;;9.82;65.37
32251;BME280;41295;48.518;9.206;2023-03-21T07:33:20;97297.19;;;9.77;65.25
32251;BME280;41295;48.518;9.206;2023-03-21T07:35:23;97303.38;;;9.73;65.71
32251;BME280;41295;48.518;9.206;2023-03-21T07:37:26;97294.97;;;9.90;65.29
32251;BME280;41295;48.518;9.206;2023-03-21T07:39:29;97295.31;;;9.81;65.68
32251;BME280;41295;48.518;9.206;2023-03-21T07:41:33;97287.38;;;9.84;66.18
32251;BME280;41295;48.518;9.206;2023-03-21T07:43:35;97293.97;;;9.94;65.33
32251;BME280;41295;48.518;9.206;2023-03-21T07:45:41;97291.94;;;10.03;65.06
32251;BME280;41295;48.518;9.206;2023-03-21T07:47:44;97295.66;;;9.95;65.80
32251;BME280;41295;48.518;9.206;2023-03-21T07:49:47;97294.16;;;9.90;66.17
32251;BME280;41295;48.518;9.206;2023-03-21T07:51:49;97293.28;;;9.89;66.49
32251;BME280;41295;48.518;9.206;2023-03-21T07:53:52;97294.09;;;9.91;66.57
32251;BME280;41295;48.518;9.206;2023-03-21T07:55:55;97288.78;;;9.94;66.80
32251;BME280;41295;48.518;9.206;2023-03-21T07:57:57;97292.81;;;10.03;66.13
32251;BME280;41295;48.518;9.206;2023-03-21T08:00:00;97290.13;;;10.05;66.19
32251;BME280;41295;48.518;9.206;2023-03-21T08:02:05;97297.00;;;10.07;66.29
32251;BME280;41295;48.518;9.206;2023-03-21T08:04:07;97291.06;;;10.04;66.95
32251;BME280;41295;48.518;9.206;2023-03-21T08:06:10;97290.03;;;10.08;66.75
32251;BME280;41295;48.518;9.206;2023-03-21T08:08:12;97285.56;;;10.11;66.82
32251;BME280;41295;48.518;9.206;2023-03-21T08:10:16;97283.63;;;10.17;67.04
32251;BME280;41295;48.518;9.206;2023-03-21T08:12:18;97282.81;;;10.16;66.47
32251;BME280;41295;48.518;9.206;2023-03-21T08:14:23;97286.09;;;10.21;66.70
32251;BME280;41295;48.518;9.206;2023-03-21T08:16:26;97271.19;;;10.25;66.27
32251;BME280;41295;48.518;9.206;2023-03-21T08:18:30;97271.03;;;10.30;66.11
32251;BME280;41295;48.518;9.206;2023-03-21T08:20:33;97273.50;;;10.33;66.42
32251;BME280;41295;48.518;9.206;2023-03-21T08:22:36;97270.75;;;10.38;65.96
32251;BME280;41295;48.518;9.206;2023-03-21T08:24:39;97271.53;;;10.40;65.63
32251;BME280;41295;48.518;9.206;2023-03-21T08:26:41;97264.47;;;10.43;65.75
32251;BME280;41295;48.518;9.206;2023-03-21T08:28:46;97258.25;;;10.48;65.59
32251;BME280;41295;48.518;9.206;2023-03-21T08:30:48;97259.84;;;10.52;65.68
32251;BME280;41295;48.518;9.206;2023-03-21T08:32:55;97259.72;;;10.55;65.19
32251;BME280;41295;48.518;9.206;2023-03-21T08:35:04;97256.97;;;10.58;65.07
32251;BME280;41295;48.518;9.206;2023-03-21T08:37:08;97257.78;;;10.60;65.10
32251;BME280;41295;48.518;9.206;2023-03-21T08:39:11;97255.03;;;10.63;64.92
32251;BME280;41295;48.518;9.206;2023-03-21T08:41:14;97255.84;;;10.65;64.91
32251;BME280;41295;48.518;9.206;2023-03-21T08:43:16;97250.53;;;10.68;64.35
32251;BME280;41295;48.518;9.206;2023-03-21T08:45:19;97249.53;;;10.71;64.46
32251;BME280;41295;48.518;9.206;2023-03-21T08:47:23;97248.41;;;10.78;64.03
32251;BME280;41295;48.518;9.206;2023-03-21T08:49:25;97252.63;;;10.81;63.39
32251;BME280;41295;48.518;9.206;2023-03-21T08:51:29;97253.59;;;11.01;62.16
32251;BME280;41295;48.518;9.206;2023-03-21T08:53:33;97246.78;;;10.98;62.12
32251;BME280;41295;48.518;9.206;2023-03-21T08:55:36;97244.88;;;11.02;61.25
32251;BME280;41295;48.518;9.206;2023-03-21T08:57:39;97247.66;;;10.97;61.37
32251;BME280;41295;48.518;9.206;2023-03-21T08:59:42;97241.63;;;10.97;62.01
32251;BME280;41295;48.518;9.206;2023-03-21T09:01:45;97246.78;;;10.98;61.92
32251;BME280;41295;48.518;9.206;2023-03-21T09:03:48;97245.44;;;11.31;60.55
32251;BME280;41295;48.518;9.206;2023-03-21T09:05:52;97241.47;;;11.22;61.10
32251;BME280;41295;48.518;9.206;2023-03-21T09:07:56;97240.69;;;11.20;61.20
32251;BME280;41295;48.518;9.206;2023-03-21T09:10:02;97238.09;;;11.41;60.74
32251;BME280;41295;48.518;9.206;2023-03-21T09:12:20;97239.34;;;11.53;59.09
32251;BME280;41295;48.518;9.206;2023-03-21T09:14:23;97241.50;;;11.43;59.61
32251;BME280;41295;48.518;9.206;2023-03-21T09:16:29;97242.28;;;11.45;59.99
32251;BME280;41295;48.518;9.206;2023-03-21T09:18:32;97245.88;;;11.84;58.47
32251;BME280;41295;48.518;9.206;2023-03-21T09:20:47;97238.50;;;11.73;59.04
32251;BME280;41295;48.518;9.206;2023-03-21T09:22:50;97242.63;;;11.79;59.04
32251;BME280;41295;48.518;9.206;2023-03-21T09:24:55;97244.75;;;11.69;59.15
32251;BME280;41295;48.518;9.206;2023-03-21T09:26:57;97243.44;;;11.79;59.49
32251;BME280;41295;48.518;9.206;2023-03-21T09:29:00;97246.84;;;11.82;58.94
32251;BME280;41295;48.518;9.206;2023-03-21T09:31:05;97243.66;;;11.75;58.90
32251;BME280;41295;48.518;9.206;2023-03-21T09:33:12;97251.50;;;11.75;59.33
32251;BME280;41295;48.518;9.206;2023-03-21T09:35:19;97247.13;;;11.75;58.87
32251;BME280;41295;48.518;9.206;2023-03-21T09:37:22;97241.91;;;11.75;58.71
32251;BME280;41295;48.518;9.206;2023-03-21T09:39:25;97245.41;;;11.74;58.10
32251;BME280;41295;48.518;9.206;2023-03-21T09:41:39;97244.81;;;11.88;57.79
32251;BME280;41295;48.518;9.206;2023-03-21T09:44:00;97245.03;;;12.24;56.42
32251;BME280;41295;48.518;9.206;2023-03-21T09:46:13;97237.09;;;12.06;57.04
32251;BME280;41295;48.518;9.206;2023-03-21T09:48:27;97234.69;;;12.01;57.20
32251;BME280;41295;48.518;9.206;2023-03-21T09:50:37;97232.16;;;12.00;57.44
32251;BME280;41295;48.518;9.206;2023-03-21T09:52:43;97236.38;;;12.02;57.73
32251;BME280;41295;48.518;9.206;2023-03-21T09:54:48;97227.41;;;12.08;57.51
32251;BME280;41295;48.518;9.206;2023-03-21T09:56:54;97226.59;;;12.08;57.50
32251;BME280;41295;48.518;9.206;2023-03-21T09:58:59;97222.16;;;12.10;57.74
32251;BME280;41295;48.518;9.206;2023-03-21T10:01:08;97232.19;;;12.19;57.21
32251;BME280;41295;48.518;9.206;2023-03-21T10:03:29;97220.22;;;12.34;55.78
32251;BME280;41295;48.518;9.206;2023-03-21T10:05:37;97226.16;;;12.38;56.09
32251;BME280;41295;48.518;9.206;2023-03-21T10:07:51;97214.59;;;12.61;54.34
32251;BME280;41295;48.518;9.206;2023-03-21T10:09:56;97210.09;;;12.46;54.99
32251;BME280;41295;48.518;9.206;2023-03-21T10:12:04;97209.38;;;12.42;55.36
32251;BME280;41295;48.518;9.206;2023-03-21T10:14:14;97212.13;;;12.39;55.66
32251;BME280;41295;48.518;9.206;2023-03-21T10:16:20;97206.06;;;12.38;55.78
32251;BME280;41295;48.518;9.206;2023-03-21T10:18:26;97204.69;;;12.49;55.55
32251;BME280;41295;48.518;9.206;2023-03-21T10:20:32;97206.66;;;12.45;55.60
32251;BME280;41295;48.518;9.206;2023-03-21T10:22:35;97197.56;;;12.53;55.49
32251;BME280;41295;48.518;9.206;2023-03-21T10:24:38;97204.84;;;12.65;54.80
32251;BME280;41295;48.518;9.206;2023-03-21T10:26:42;97198.47;;;12.71;54.47
32251;BME280;41295;48.518;9.206;2023-03-21T10:28:47;97202.56;;;12.77;54.79
32251;BME280;41295;48.518;9.206;2023-03-21T10:30:56;97199.16;;;12.74;55.19
32251;BME280;41295;48.518;9.206;2023-03-21T10:33:02;97194.88;;;12.73;55.45
32251;BME280;41295;48.518;9.206;2023-03-21T10:35:08;97208.72;;;12.75;55.72
32251;BME280;41295;48.518;9.206;2023-03-21T10:37:12;97200.34;;;12.86;54.65
32251;BME280;41295;48.518;9.206;2023-03-21T10:39:22;97201.44;;;12.82;54.80
32251;BME280;41295;48.518;9.206;2023-03-21T10:41:26;97192.50;;;12.86;55.11
32251;BME280;41295;48.518;9.206;2023-03-21T10:43:34;97191.38;;;13.10;54.24
32251;BME280;41295;48.518;9.206;2023-03-21T10:45:39;97185.69;;;13.02;54.80
32251;BME280;41295;48.518;9.206;2023-03-21T10:47:42;97186.56;;;13.20;53.98
32251;BME280;41295;48.518;9.206;2023-03-21T10:49:48;97187.53;;;13.17;54.39
32251;BME280;41295;48.518;9.206;2023-03-21T10:52:18;97189.53;;;13.12;54.48
32251;BME280;41295;48.518;9.206;2023-03-21T10:54:24;97189.53;;;13.12;54.76
32251;BME280;41295;48.518;9.206;2023-03-21T10:56:30;97193.00;;;13.13;54.85
32251;BME280;41295;48.518;9.206;2023-03-21T10:58:36;97192.06;;;13.14;54.92
32251;BME280;41295;48.518;9.206;2023-03-21T11:00:42;97191.69;;;13.21;54.01
32251;BME280;41295;48.518;9.206;2023-03-21T11:02:47;97187.41;;;13.56;52.61
32251;BME280;41295;48.518;9.206;2023-03-21T11:04:51;97196.25;;;13.35;53.12
32251;BME280;41295;48.518;9.206;2023-03-21T11:06:56;97190.41;;;13.30;53.70
32251;BME280;41295;48.518;9.206;2023-03-21T11:09:04;97188.75;;;13.28;53.95
32251;BME280;41295;48.518;9.206;2023-03-21T11:11:09;97184.91;;;13.35;53.64
32251;BME280;41295;48.518;9.206;2023-03-21T11:13:17;97186.00;;;13.31;54.07
32251;BME280;41295;48.518;9.206;2023-03-21T11:15:27;97184.53;;;13.43;53.75
32251;BME280;41295;48.518;9.206;2023-03-21T11:17:34;97180.06;;;13.45;53.32